sensor_id;sensor_type;location;lat;lon;timestamp;P1;durP1;ratioP1;P2;durP2;ratioP2
80836;SDS011;70251;60.008;30.404;2023-07-30T00:01:45;3.23;;;0.60;;
80836;SDS011;70251;60.008;30.404;2023-07-30T00:04:10;3.70;;;0.80;;
80836;SDS011;70251;60.008;30.404;2023-07-30T00:06:36;3.27;;;0.87;;
80836;SDS011;70251;60.008;30.404;2023-07-30T00:09:01;3.47;;;0.80;;
80836;SDS011;70251;60.008;30.404;2023-07-30T00:11:27;5.68;;;0.80;;
80836;SDS011;70251;60.008;30.404;2023-07-30T00:13:53;2.83;;;0.60;;
80836;SDS011;70251;60.008;30.404;2023-07-30T00:16:18;3.83;;;0.67;;
80836;SDS011;70251;60.008;30.404;2023-07-30T00:18:44;4.47;;;0.73;;
80836;SDS011;70251;60.008;30.404;2023-07-30T00:21:09;3.67;;;0.80;;
80836;SDS011;70251;60.008;30.404;2023-07-30T00:23:34;3.17;;;0.60;;
80836;SDS011;70251;60.008;30.404;2023-07-30T00:26:03;4.23;;;0.80;;
80836;SDS011;70251;60.008;30.404;2023-07-30T00:28:31;2.10;;;0.40;;
80836;SDS011;70251;60.008;30.404;2023-07-30T00:30:56;2.00;;;0.40;;
80836;SDS011;70251;60.008;30.404;2023-07-30T00:33:27;3.28;;;0.60;;
80836;SDS011;70251;60.008;30.404;2023-07-30T00:35:56;3.25;;;0.50;;
80836;SDS011;70251;60.008;30.404;2023-07-30T00:38:22;4.33;;;0.40;;
80836;SDS011;70251;60.008;30.404;2023-07-30T00:40:48;2.55;;;0.40;;
80836;SDS011;70251;60.008;30.404;2023-07-30T00:43:14;3.80;;;0.60;;
80836;SDS011;70251;60.008;30.404;2023-07-30T00:45:40;3.85;;;0.50;;
80836;SDS011;70251;60.008;30.404;2023-07-30T00:48:09;3.42;;;0.40;;
80836;SDS011;70251;60.008;30.404;2023-07-30T00:50:36;4.03;;;0.65;;
80836;SDS011;70251;60.008;30.404;2023-07-30T00:53:03;3.33;;;0.40;;
80836;SDS011;70251;60.008;30.404;2023-07-30T00:55:29;2.08;;;0.30;;
80836;SDS011;70251;60.008;30.404;2023-07-30T00:57:57;2.00;;;0.30;;
80836;SDS011;70251;60.008;30.404;2023-07-30T01:00:23;4.20;;;0.50;;
80836;SDS011;70251;60.008;30.404;2023-07-30T01:02:50;2.60;;;0.45;;
80836;SDS011;70251;60.008;30.404;2023-07-30T01:05:16;2.53;;;0.52;;
80836;SDS011;70251;60.008;30.404;2023-07-30T01:07:42;3.30;;;0.30;;
80836;SDS011;70251;60.008;30.404;2023-07-30T01:10:08;4.20;;;0.47;;
80836;SDS011;70251;60.008;30.404;2023-07-30T01:12:34;2.40;;;0.40;;
80836;SDS011;70251;60.008;30.404;2023-07-30T01:15:01;2.85;;;0.50;;
80836;SDS011;70251;60.008;30.404;2023-07-30T01:17:32;3.60;;;0.50;;
80836;SDS011;70251;60.008;30.404;2023-07-30T01:19:58;2.33;;;0.40;;
80836;SDS011;70251;60.008;30.404;2023-07-30T01:22:24;2.67;;;0.40;;
80836;SDS011;70251;60.008;30.404;2023-07-30T01:24:49;3.08;;;0.50;;
80836;SDS011;70251;60.008;30.404;2023-07-30T01:27:22;2.30;;;0.30;;
80836;SDS011;70251;60.008;30.404;2023-07-30T01:29:52;3.00;;;0.40;;
80836;SDS011;70251;60.008;30.404;2023-07-30T01:32:25;4.63;;;0.50;;
80836;SDS011;70251;60.008;30.404;2023-07-30T01:34:54;2.95;;;0.35;;
80836;SDS011;70251;60.008;30.404;2023-07-30T01:37:22;2.72;;;0.40;;
80836;SDS011;70251;60.008;30.404;2023-07-30T01:39:49;2.50;;;0.33;;
80836;SDS011;70251;60.008;30.404;2023-07-30T01:42:18;2.88;;;0.35;;
80836;SDS011;70251;60.008;30.404;2023-07-30T01:44:49;1.60;;;0.30;;
80836;SDS011;70251;60.008;30.404;2023-07-30T01:47:14;2.92;;;0.30;;
80836;SDS011;70251;60.008;30.404;2023-07-30T01:49:40;2.00;;;0.30;;
80836;SDS011;70251;60.008;30.404;2023-07-30T01:52:06;3.50;;;0.50;;
80836;SDS011;70251;60.008;30.404;2023-07-30T01:54:31;1.70;;;0.30;;
80836;SDS011;70251;60.008;30.404;2023-07-30T01:56:57;3.35;;;0.52;;
80836;SDS011;70251;60.008;30.404;2023-07-30T01:59:26;3.90;;;0.33;;
80836;SDS011;70251;60.008;30.404;2023-07-30T02:01:51;2.53;;;0.40;;
80836;SDS011;70251;60.008;30.404;2023-07-30T02:04:17;2.83;;;0.40;;
80836;SDS011;70251;60.008;30.404;2023-07-30T02:06:43;3.07;;;0.27;;
80836;SDS011;70251;60.008;30.404;2023-07-30T02:09:08;2.38;;;0.30;;
80836;SDS011;70251;60.008;30.404;2023-07-30T02:11:34;4.30;;;0.50;;
80836;SDS011;70251;60.008;30.404;2023-07-30T02:13:59;1.93;;;0.30;;
80836;SDS011;70251;60.008;30.404;2023-07-30T02:16:25;2.08;;;0.30;;
80836;SDS011;70251;60.008;30.404;2023-07-30T02:18:50;4.43;;;0.50;;
80836;SDS011;70251;60.008;30.404;2023-07-30T02:21:17;3.08;;;0.40;;
80836;SDS011;70251;60.008;30.404;2023-07-30T02:23:43;2.77;;;0.60;;
80836;SDS011;70251;60.008;30.404;2023-07-30T02:26:08;2.05;;;0.50;;
80836;SDS011;70251;60.008;30.404;2023-07-30T02:28:34;3.13;;;0.30;;
80836;SDS011;70251;60.008;30.404;2023-07-30T02:31:02;2.17;;;0.40;;
80836;SDS011;70251;60.008;30.404;2023-07-30T02:33:29;2.88;;;0.30;;
80836;SDS011;70251;60.008;30.404;2023-07-30T02:35:54;2.57;;;0.30;;
80836;SDS011;70251;60.008;30.404;2023-07-30T02:38:26;5.20;;;0.50;;
80836;SDS011;70251;60.008;30.404;2023-07-30T02:40:51;2.73;;;0.30;;
80836;SDS011;70251;60.008;30.404;2023-07-30T02:43:22;3.95;;;0.30;;
80836;SDS011;70251;60.008;30.404;2023-07-30T02:45:57;3.28;;;0.40;;
80836;SDS011;70251;60.008;30.404;2023-07-30T02:48:22;1.97;;;0.40;;
80836;SDS011;70251;60.008;30.404;2023-07-30T02:50:48;3.10;;;0.40;;
80836;SDS011;70251;60.008;30.404;2023-07-30T02:53:13;1.90;;;0.30;;
80836;SDS011;70251;60.008;30.404;2023-07-30T02:55:41;1.90;;;0.40;;
80836;SDS011;70251;60.008;30.404;2023-07-30T02:58:08;2.80;;;0.40;;
80836;SDS011;70251;60.008;30.404;2023-07-30T03:00:34;2.50;;;0.40;;
80836;SDS011;70251;60.008;30.404;2023-07-30T03:02:59;2.87;;;0.40;;
80836;SDS011;70251;60.008;30.404;2023-07-30T03:05:26;1.33;;;0.20;;
80836;SDS011;70251;60.008;30.404;2023-07-30T03:07:52;3.03;;;0.40;;
80836;SDS011;70251;60.008;30.404;2023-07-30T03:10:18;2.50;;;0.40;;
80836;SDS011;70251;60.008;30.404;2023-07-30T03:12:45;5.03;;;0.50;;
80836;SDS011;70251;60.008;30.404;2023-07-30T03:15:10;2.72;;;0.40;;
80836;SDS011;70251;60.008;30.404;2023-07-30T03:17:36;2.60;;;0.30;;
80836;SDS011;70251;60.008;30.404;2023-07-30T03:20:07;5.88;;;0.70;;
80836;SDS011;70251;60.008;30.404;2023-07-30T03:22:34;2.60;;;0.33;;
80836;SDS011;70251;60.008;30.404;2023-07-30T03:24:59;3.33;;;0.50;;
80836;SDS011;70251;60.008;30.404;2023-07-30T03:27:25;2.73;;;0.40;;
80836;SDS011;70251;60.008;30.404;2023-07-30T03:29:53;5.80;;;0.90;;
80836;SDS011;70251;60.008;30.404;2023-07-30T03:32:19;1.90;;;0.40;;
80836;SDS011;70251;60.008;30.404;2023-07-30T03:34:44;3.13;;;0.40;;
80836;SDS011;70251;60.008;30.404;2023-07-30T03:37:10;3.60;;;0.60;;
80836;SDS011;70251;60.008;30.404;2023-07-30T03:39:35;3.70;;;0.52;;
80836;SDS011;70251;60.008;30.404;2023-07-30T03:42:01;2.80;;;0.40;;
80836;SDS011;70251;60.008;30.404;2023-07-30T03:44:27;2.97;;;0.57;;
80836;SDS011;70251;60.008;30.404;2023-07-30T03:46:52;3.37;;;0.40;;
80836;SDS011;70251;60.008;30.404;2023-07-30T03:49:18;3.43;;;0.40;;
80836;SDS011;70251;60.008;30.404;2023-07-30T03:51:43;3.15;;;0.30;;
80836;SDS011;70251;60.008;30.404;2023-07-30T03:54:09;3.20;;;0.57;;
80836;SDS011;70251;60.008;30.404;2023-07-30T03:56:34;3.83;;;0.35;;
80836;SDS011;70251;60.008;30.404;2023-07-30T03:59:03;3.20;;;0.60;;
80836;SDS011;70251;60.008;30.404;2023-07-30T04:01:31;3.45;;;0.68;;
80836;SDS011;70251;60.008;30.404;2023-07-30T04:03:57;2.93;;;0.40;;
80836;SDS011;70251;60.008;30.404;2023-07-30T04:06:25;4.00;;;0.50;;
80836;SDS011;70251;60.008;30.404;2023-07-30T04:08:51;2.90;;;0.50;;
80836;SDS011;70251;60.008;30.404;2023-07-30T04:11:16;3.10;;;0.40;;
80836;SDS011;70251;60.008;30.404;2023-07-30T04:13:42;3.40;;;0.53;;
80836;SDS011;70251;60.008;30.404;2023-07-30T04:16:07;2.58;;;0.50;;
80836;SDS011;70251;60.008;30.404;2023-07-30T04:18:33;3.00;;;0.50;;
80836;SDS011;70251;60.008;30.404;2023-07-30T04:20:59;3.08;;;0.50;;
80836;SDS011;70251;60.008;30.404;2023-07-30T04:23:24;2.90;;;0.50;;
80836;SDS011;70251;60.008;30.404;2023-07-30T04:25:50;2.93;;;0.57;;
80836;SDS011;70251;60.008;30.404;2023-07-30T04:28:19;3.35;;;0.35;;
80836;SDS011;70251;60.008;30.404;2023-07-30T04:30:44;4.83;;;0.80;;
80836;SDS011;70251;60.008;30.404;2023-07-30T04:33:12;4.55;;;0.82;;
80836;SDS011;70251;60.008;30.404;2023-07-30T04:35:39;5.53;;;0.75;;
80836;SDS011;70251;60.008;30.404;2023-07-30T04:38:05;4.80;;;0.70;;
80836;SDS011;70251;60.008;30.404;2023-07-30T04:40:33;3.97;;;0.70;;
80836;SDS011;70251;60.008;30.404;2023-07-30T04:42:58;3.30;;;0.53;;
80836;SDS011;70251;60.008;30.404;2023-07-30T04:45:24;3.60;;;0.50;;
80836;SDS011;70251;60.008;30.404;2023-07-30T04:47:50;3.35;;;0.47;;
80836;SDS011;70251;60.008;30.404;2023-07-30T04:50:16;3.87;;;0.60;;
80836;SDS011;70251;60.008;30.404;2023-07-30T04:52:41;4.32;;;0.90;;
80836;SDS011;70251;60.008;30.404;2023-07-30T04:55:07;3.67;;;0.80;;
80836;SDS011;70251;60.008;30.404;2023-07-30T04:57:33;3.03;;;0.50;;
80836;SDS011;70251;60.008;30.404;2023-07-30T04:59:58;3.37;;;0.77;;
80836;SDS011;70251;60.008;30.404;2023-07-30T05:02:25;3.13;;;0.70;;
80836;SDS011;70251;60.008;30.404;2023-07-30T05:04:50;6.83;;;0.80;;
80836;SDS011;70251;60.008;30.404;2023-07-30T05:07:18;2.50;;;0.70;;
80836;SDS011;70251;60.008;30.404;2023-07-30T05:09:46;3.90;;;0.40;;
80836;SDS011;70251;60.008;30.404;2023-07-30T05:12:12;2.33;;;0.50;;
80836;SDS011;70251;60.008;30.404;2023-07-30T05:14:37;6.17;;;0.60;;
80836;SDS011;70251;60.008;30.404;2023-07-30T05:17:06;4.05;;;0.68;;
80836;SDS011;70251;60.008;30.404;2023-07-30T05:19:31;5.03;;;0.83;;
80836;SDS011;70251;60.008;30.404;2023-07-30T05:21:57;3.60;;;0.65;;
80836;SDS011;70251;60.008;30.404;2023-07-30T05:24:24;3.70;;;0.88;;
80836;SDS011;70251;60.008;30.404;2023-07-30T05:26:50;4.20;;;0.80;;
80836;SDS011;70251;60.008;30.404;2023-07-30T05:29:15;4.78;;;0.80;;
80836;SDS011;70251;60.008;30.404;2023-07-30T05:31:44;5.70;;;1.00;;
80836;SDS011;70251;60.008;30.404;2023-07-30T05:34:09;4.82;;;0.90;;
80836;SDS011;70251;60.008;30.404;2023-07-30T05:36:35;5.30;;;0.80;;
80836;SDS011;70251;60.008;30.404;2023-07-30T05:39:00;3.53;;;0.70;;
80836;SDS011;70251;60.008;30.404;2023-07-30T05:41:26;4.32;;;0.77;;
80836;SDS011;70251;60.008;30.404;2023-07-30T05:43:54;6.03;;;1.00;;
80836;SDS011;70251;60.008;30.404;2023-07-30T05:46:20;3.92;;;0.60;;
80836;SDS011;70251;60.008;30.404;2023-07-30T05:48:48;4.22;;;0.77;;
80836;SDS011;70251;60.008;30.404;2023-07-30T05:51:14;3.83;;;0.90;;
80836;SDS011;70251;60.008;30.404;2023-07-30T05:53:42;4.50;;;0.60;;
80836;SDS011;70251;60.008;30.404;2023-07-30T05:56:07;4.50;;;0.80;;
80836;SDS011;70251;60.008;30.404;2023-07-30T05:58:33;4.57;;;0.80;;
80836;SDS011;70251;60.008;30.404;2023-07-30T06:01:01;6.03;;;0.70;;
80836;SDS011;70251;60.008;30.404;2023-07-30T06:03:27;3.50;;;1.00;;
80836;SDS011;70251;60.008;30.404;2023-07-30T06:05:53;3.10;;;0.63;;
80836;SDS011;70251;60.008;30.404;2023-07-30T06:08:18;5.68;;;1.00;;
80836;SDS011;70251;60.008;30.404;2023-07-30T06:10:44;5.47;;;0.90;;
80836;SDS011;70251;60.008;30.404;2023-07-30T06:13:11;4.57;;;0.98;;
80836;SDS011;70251;60.008;30.404;2023-07-30T06:15:37;2.40;;;0.60;;
80836;SDS011;70251;60.008;30.404;2023-07-30T06:18:02;3.50;;;1.10;;
80836;SDS011;70251;60.008;30.404;2023-07-30T06:20:28;5.03;;;0.83;;
80836;SDS011;70251;60.008;30.404;2023-07-30T06:22:54;4.82;;;1.65;;
80836;SDS011;70251;60.008;30.404;2023-07-30T06:25:20;4.97;;;0.90;;
80836;SDS011;70251;60.008;30.404;2023-07-30T06:27:46;5.20;;;0.80;;
80836;SDS011;70251;60.008;30.404;2023-07-30T06:30:11;3.13;;;0.80;;
80836;SDS011;70251;60.008;30.404;2023-07-30T06:32:44;4.97;;;0.75;;
80836;SDS011;70251;60.008;30.404;2023-07-30T06:35:10;3.63;;;0.63;;
80836;SDS011;70251;60.008;30.404;2023-07-30T06:37:35;5.00;;;0.90;;
80836;SDS011;70251;60.008;30.404;2023-07-30T06:40:02;4.20;;;0.95;;
80836;SDS011;70251;60.008;30.404;2023-07-30T06:42:31;4.18;;;1.10;;
80836;SDS011;70251;60.008;30.404;2023-07-30T06:44:57;5.60;;;0.87;;
80836;SDS011;70251;60.008;30.404;2023-07-30T06:47:22;3.70;;;0.90;;
80836;SDS011;70251;60.008;30.404;2023-07-30T06:49:50;4.32;;;1.20;;
80836;SDS011;70251;60.008;30.404;2023-07-30T06:52:18;4.25;;;0.93;;
80836;SDS011;70251;60.008;30.404;2023-07-30T06:54:44;3.78;;;0.80;;
80836;SDS011;70251;60.008;30.404;2023-07-30T06:57:09;4.40;;;1.10;;
80836;SDS011;70251;60.008;30.404;2023-07-30T06:59:37;3.53;;;0.85;;
80836;SDS011;70251;60.008;30.404;2023-07-30T07:02:03;3.40;;;1.10;;
80836;SDS011;70251;60.008;30.404;2023-07-30T07:04:30;4.15;;;0.95;;
80836;SDS011;70251;60.008;30.404;2023-07-30T07:06:59;5.03;;;0.90;;
80836;SDS011;70251;60.008;30.404;2023-07-30T07:09:28;3.10;;;0.70;;
80836;SDS011;70251;60.008;30.404;2023-07-30T07:11:54;2.73;;;0.60;;
80836;SDS011;70251;60.008;30.404;2023-07-30T07:14:19;3.77;;;0.87;;
80836;SDS011;70251;60.008;30.404;2023-07-30T07:16:45;4.00;;;0.88;;
80836;SDS011;70251;60.008;30.404;2023-07-30T07:19:10;4.80;;;0.90;;
80836;SDS011;70251;60.008;30.404;2023-07-30T07:21:36;5.72;;;1.02;;
80836;SDS011;70251;60.008;30.404;2023-07-30T07:24:01;4.53;;;0.97;;
80836;SDS011;70251;60.008;30.404;2023-07-30T07:26:27;3.13;;;0.70;;
80836;SDS011;70251;60.008;30.404;2023-07-30T07:28:55;2.83;;;0.73;;
80836;SDS011;70251;60.008;30.404;2023-07-30T07:31:21;2.83;;;0.80;;
80836;SDS011;70251;60.008;30.404;2023-07-30T07:33:46;4.87;;;1.10;;
80836;SDS011;70251;60.008;30.404;2023-07-30T07:36:12;3.93;;;0.90;;
80836;SDS011;70251;60.008;30.404;2023-07-30T07:38:39;3.28;;;0.95;;
80836;SDS011;70251;60.008;30.404;2023-07-30T07:41:04;3.00;;;0.60;;
80836;SDS011;70251;60.008;30.404;2023-07-30T07:43:30;3.27;;;0.67;;
80836;SDS011;70251;60.008;30.404;2023-07-30T07:45:59;3.58;;;0.70;;
80836;SDS011;70251;60.008;30.404;2023-07-30T07:48:24;4.17;;;0.97;;
80836;SDS011;70251;60.008;30.404;2023-07-30T07:50:52;4.80;;;1.00;;
80836;SDS011;70251;60.008;30.404;2023-07-30T07:53:18;3.70;;;0.90;;
80836;SDS011;70251;60.008;30.404;2023-07-30T07:55:43;4.50;;;1.00;;
80836;SDS011;70251;60.008;30.404;2023-07-30T07:58:09;4.23;;;1.00;;
80836;SDS011;70251;60.008;30.404;2023-07-30T08:00:34;4.60;;;0.90;;
80836;SDS011;70251;60.008;30.404;2023-07-30T08:03:00;3.60;;;0.88;;
80836;SDS011;70251;60.008;30.404;2023-07-30T08:05:26;6.43;;;0.90;;
80836;SDS011;70251;60.008;30.404;2023-07-30T08:07:51;3.17;;;0.85;;
80836;SDS011;70251;60.008;30.404;2023-07-30T08:10:17;3.77;;;0.83;;
80836;SDS011;70251;60.008;30.404;2023-07-30T08:12:42;4.45;;;0.90;;
80836;SDS011;70251;60.008;30.404;2023-07-30T08:15:08;3.33;;;0.90;;
80836;SDS011;70251;60.008;30.404;2023-07-30T08:17:34;5.70;;;1.40;;
80836;SDS011;70251;60.008;30.404;2023-07-30T08:20:00;7.43;;;2.37;;
80836;SDS011;70251;60.008;30.404;2023-07-30T08:22:25;5.63;;;1.63;;
80836;SDS011;70251;60.008;30.404;2023-07-30T08:24:52;4.75;;;1.63;;
80836;SDS011;70251;60.008;30.404;2023-07-30T08:27:23;6.82;;;3.00;;
80836;SDS011;70251;60.008;30.404;2023-07-30T08:29:52;4.90;;;1.30;;
80836;SDS011;70251;60.008;30.404;2023-07-30T08:32:17;4.00;;;1.00;;
80836;SDS011;70251;60.008;30.404;2023-07-30T08:34:44;3.60;;;0.97;;
80836;SDS011;70251;60.008;30.404;2023-07-30T08:37:09;4.28;;;1.00;;
80836;SDS011;70251;60.008;30.404;2023-07-30T08:39:35;3.47;;;1.10;;
80836;SDS011;70251;60.008;30.404;2023-07-30T08:42:00;3.57;;;1.07;;
80836;SDS011;70251;60.008;30.404;2023-07-30T08:44:26;4.60;;;1.13;;
80836;SDS011;70251;60.008;30.404;2023-07-30T08:47:01;6.55;;;1.33;;
80836;SDS011;70251;60.008;30.404;2023-07-30T08:49:27;5.47;;;1.23;;
80836;SDS011;70251;60.008;30.404;2023-07-30T08:51:58;3.67;;;1.10;;
80836;SDS011;70251;60.008;30.404;2023-07-30T08:54:24;3.97;;;0.90;;
80836;SDS011;70251;60.008;30.404;2023-07-30T08:56:54;5.25;;;1.10;;
80836;SDS011;70251;60.008;30.404;2023-07-30T08:59:22;4.82;;;1.05;;
80836;SDS011;70251;60.008;30.404;2023-07-30T09:01:50;4.70;;;1.20;;
80836;SDS011;70251;60.008;30.404;2023-07-30T09:04:17;6.43;;;2.33;;
80836;SDS011;70251;60.008;30.404;2023-07-30T09:06:43;4.07;;;1.42;;
80836;SDS011;70251;60.008;30.404;2023-07-30T09:09:12;5.40;;;1.40;;
80836;SDS011;70251;60.008;30.404;2023-07-30T09:11:39;3.87;;;1.00;;
80836;SDS011;70251;60.008;30.404;2023-07-30T09:14:05;4.47;;;1.20;;
80836;SDS011;70251;60.008;30.404;2023-07-30T09:16:33;3.83;;;1.05;;
80836;SDS011;70251;60.008;30.404;2023-07-30T09:18:59;4.18;;;0.98;;
80836;SDS011;70251;60.008;30.404;2023-07-30T09:21:29;4.60;;;1.03;;
80836;SDS011;70251;60.008;30.404;2023-07-30T09:23:58;4.35;;;1.00;;
80836;SDS011;70251;60.008;30.404;2023-07-30T09:26:41;5.13;;;1.27;;
80836;SDS011;70251;60.008;30.404;2023-07-30T09:29:08;3.50;;;1.00;;
80836;SDS011;70251;60.008;30.404;2023-07-30T09:31:50;3.42;;;0.93;;
80836;SDS011;70251;60.008;30.404;2023-07-30T09:34:19;4.80;;;1.10;;
80836;SDS011;70251;60.008;30.404;2023-07-30T09:36:54;4.40;;;1.20;;
80836;SDS011;70251;60.008;30.404;2023-07-30T09:39:21;3.80;;;1.20;;
80836;SDS011;70251;60.008;30.404;2023-07-30T09:41:49;4.00;;;1.20;;
80836;SDS011;70251;60.008;30.404;2023-07-30T09:44:17;3.35;;;1.20;;
80836;SDS011;70251;60.008;30.404;2023-07-30T09:46:44;3.20;;;1.10;;
80836;SDS011;70251;60.008;30.404;2023-07-30T09:49:14;3.97;;;1.30;;
80836;SDS011;70251;60.008;30.404;2023-07-30T09:51:41;4.35;;;1.10;;
80836;SDS011;70251;60.008;30.404;2023-07-30T09:54:13;3.50;;;1.10;;
80836;SDS011;70251;60.008;30.404;2023-07-30T09:56:40;5.22;;;1.20;;
80836;SDS011;70251;60.008;30.404;2023-07-30T09:59:07;3.60;;;1.10;;
80836;SDS011;70251;60.008;30.404;2023-07-30T10:04:23;4.38;;;1.02;;
80836;SDS011;70251;60.008;30.404;2023-07-30T10:06:52;4.30;;;1.00;;
80836;SDS011;70251;60.008;30.404;2023-07-30T10:09:34;4.03;;;1.20;;
80836;SDS011;70251;60.008;30.404;2023-07-30T10:12:29;4.83;;;0.90;;
80836;SDS011;70251;60.008;30.404;2023-07-30T10:14:57;3.80;;;1.13;;
80836;SDS011;70251;60.008;30.404;2023-07-30T10:17:23;5.43;;;1.08;;
80836;SDS011;70251;60.008;30.404;2023-07-30T10:19:50;3.17;;;1.00;;
80836;SDS011;70251;60.008;30.404;2023-07-30T10:22:22;2.80;;;1.00;;
80836;SDS011;70251;60.008;30.404;2023-07-30T10:25:03;4.28;;;1.17;;
80836;SDS011;70251;60.008;30.404;2023-07-30T10:27:40;3.53;;;1.13;;
80836;SDS011;70251;60.008;30.404;2023-07-30T10:30:09;3.65;;;1.10;;
80836;SDS011;70251;60.008;30.404;2023-07-30T10:32:58;3.22;;;1.00;;
80836;SDS011;70251;60.008;30.404;2023-07-30T10:43:38;2.60;;;0.95;;
80836;SDS011;70251;60.008;30.404;2023-07-30T10:46:09;2.78;;;1.10;;
80836;SDS011;70251;60.008;30.404;2023-07-30T10:48:36;3.58;;;1.17;;
80836;SDS011;70251;60.008;30.404;2023-07-30T10:51:11;3.90;;;1.42;;
80836;SDS011;70251;60.008;30.404;2023-07-30T10:53:38;3.73;;;1.33;;
80836;SDS011;70251;60.008;30.404;2023-07-30T10:56:05;3.20;;;0.98;;
80836;SDS011;70251;60.008;30.404;2023-07-30T10:58:32;3.42;;;1.23;;
80836;SDS011;70251;60.008;30.404;2023-07-30T11:01:03;3.58;;;1.10;;
80836;SDS011;70251;60.008;30.404;2023-07-30T11:03:30;3.78;;;0.70;;
80836;SDS011;70251;60.008;30.404;2023-07-30T11:05:59;4.10;;;1.40;;
80836;SDS011;70251;60.008;30.404;2023-07-30T11:08:32;3.45;;;1.00;;
80836;SDS011;70251;60.008;30.404;2023-07-30T11:11:02;3.58;;;1.20;;
80836;SDS011;70251;60.008;30.404;2023-07-30T11:13:27;3.15;;;1.20;;
80836;SDS011;70251;60.008;30.404;2023-07-30T11:15:53;4.10;;;1.20;;
80836;SDS011;70251;60.008;30.404;2023-07-30T11:18:19;7.85;;;1.35;;
80836;SDS011;70251;60.008;30.404;2023-07-30T11:20:45;2.50;;;0.90;;
80836;SDS011;70251;60.008;30.404;2023-07-30T11:23:20;3.08;;;1.00;;
80836;SDS011;70251;60.008;30.404;2023-07-30T11:25:47;3.58;;;0.98;;
80836;SDS011;70251;60.008;30.404;2023-07-30T11:28:14;3.03;;;1.13;;
80836;SDS011;70251;60.008;30.404;2023-07-30T11:30:51;3.72;;;1.00;;
80836;SDS011;70251;60.008;30.404;2023-07-30T11:33:20;4.68;;;1.25;;
80836;SDS011;70251;60.008;30.404;2023-07-30T11:35:47;3.78;;;1.15;;
80836;SDS011;70251;60.008;30.404;2023-07-30T11:38:12;4.63;;;1.00;;
80836;SDS011;70251;60.008;30.404;2023-07-30T11:40:39;4.18;;;1.25;;
80836;SDS011;70251;60.008;30.404;2023-07-30T11:43:05;3.63;;;1.10;;
80836;SDS011;70251;60.008;30.404;2023-07-30T11:45:31;3.33;;;1.27;;
80836;SDS011;70251;60.008;30.404;2023-07-30T11:48:09;3.97;;;0.88;;
80836;SDS011;70251;60.008;30.404;2023-07-30T11:50:45;3.03;;;1.00;;
80836;SDS011;70251;60.008;30.404;2023-07-30T11:53:12;3.17;;;1.05;;
80836;SDS011;70251;60.008;30.404;2023-07-30T11:55:38;3.67;;;1.33;;
80836;SDS011;70251;60.008;30.404;2023-07-30T11:58:05;3.28;;;1.40;;
80836;SDS011;70251;60.008;30.404;2023-07-30T12:00:32;4.20;;;1.60;;
80836;SDS011;70251;60.008;30.404;2023-07-30T12:03:02;3.90;;;1.40;;
80836;SDS011;70251;60.008;30.404;2023-07-30T12:05:32;3.85;;;1.20;;
80836;SDS011;70251;60.008;30.404;2023-07-30T12:08:00;3.72;;;1.30;;
80836;SDS011;70251;60.008;30.404;2023-07-30T12:10:45;4.10;;;1.38;;
80836;SDS011;70251;60.008;30.404;2023-07-30T12:13:17;5.03;;;1.40;;
80836;SDS011;70251;60.008;30.404;2023-07-30T12:15:50;3.00;;;1.23;;
80836;SDS011;70251;60.008;30.404;2023-07-30T12:18:17;2.95;;;1.20;;
80836;SDS011;70251;60.008;30.404;2023-07-30T12:20:43;4.35;;;1.20;;
80836;SDS011;70251;60.008;30.404;2023-07-30T12:23:08;4.13;;;1.27;;
80836;SDS011;70251;60.008;30.404;2023-07-30T12:25:34;5.30;;;1.73;;
80836;SDS011;70251;60.008;30.404;2023-07-30T12:28:00;3.23;;;0.80;;
80836;SDS011;70251;60.008;30.404;2023-07-30T12:30:26;5.43;;;1.33;;
80836;SDS011;70251;60.008;30.404;2023-07-30T12:32:55;3.25;;;1.17;;
80836;SDS011;70251;60.008;30.404;2023-07-30T12:35:21;3.57;;;1.33;;
80836;SDS011;70251;60.008;30.404;2023-07-30T12:37:51;3.33;;;1.45;;
80836;SDS011;70251;60.008;30.404;2023-07-30T12:40:16;4.80;;;1.25;;
80836;SDS011;70251;60.008;30.404;2023-07-30T12:42:42;3.30;;;1.30;;
80836;SDS011;70251;60.008;30.404;2023-07-30T12:45:09;3.15;;;1.17;;
80836;SDS011;70251;60.008;30.404;2023-07-30T12:47:35;5.10;;;1.70;;
80836;SDS011;70251;60.008;30.404;2023-07-30T12:50:02;5.43;;;1.80;;
80836;SDS011;70251;60.008;30.404;2023-07-30T12:52:31;5.05;;;2.03;;
80836;SDS011;70251;60.008;30.404;2023-07-30T12:54:58;4.03;;;1.50;;
80836;SDS011;70251;60.008;30.404;2023-07-30T12:57:24;3.60;;;1.50;;
80836;SDS011;70251;60.008;30.404;2023-07-30T12:59:50;5.13;;;1.43;;
80836;SDS011;70251;60.008;30.404;2023-07-30T13:02:16;4.75;;;1.65;;
80836;SDS011;70251;60.008;30.404;2023-07-30T13:04:41;4.10;;;1.63;;
80836;SDS011;70251;60.008;30.404;2023-07-30T13:07:07;3.53;;;1.40;;
80836;SDS011;70251;60.008;30.404;2023-07-30T13:09:33;4.85;;;1.55;;
80836;SDS011;70251;60.008;30.404;2023-07-30T13:11:59;4.60;;;1.60;;
80836;SDS011;70251;60.008;30.404;2023-07-30T13:14:25;3.30;;;1.40;;
80836;SDS011;70251;60.008;30.404;2023-07-30T13:16:59;4.18;;;1.42;;
80836;SDS011;70251;60.008;30.404;2023-07-30T13:19:25;3.30;;;1.43;;
80836;SDS011;70251;60.008;30.404;2023-07-30T13:21:51;4.00;;;1.63;;
80836;SDS011;70251;60.008;30.404;2023-07-30T13:24:16;4.18;;;1.50;;
80836;SDS011;70251;60.008;30.404;2023-07-30T13:26:42;5.77;;;1.80;;
80836;SDS011;70251;60.008;30.404;2023-07-30T13:29:07;4.35;;;1.77;;
80836;SDS011;70251;60.008;30.404;2023-07-30T13:31:33;4.30;;;1.60;;
80836;SDS011;70251;60.008;30.404;2023-07-30T13:33:58;5.03;;;1.63;;
80836;SDS011;70251;60.008;30.404;2023-07-30T13:36:24;3.90;;;1.60;;
80836;SDS011;70251;60.008;30.404;2023-07-30T13:38:53;3.57;;;1.37;;
80836;SDS011;70251;60.008;30.404;2023-07-30T13:41:18;4.25;;;1.50;;
80836;SDS011;70251;60.008;30.404;2023-07-30T13:43:46;3.88;;;1.70;;
80836;SDS011;70251;60.008;30.404;2023-07-30T13:46:12;3.90;;;1.70;;
80836;SDS011;70251;60.008;30.404;2023-07-30T13:48:38;5.20;;;1.70;;
80836;SDS011;70251;60.008;30.404;2023-07-30T13:51:03;5.38;;;1.63;;
80836;SDS011;70251;60.008;30.404;2023-07-30T13:53:29;4.20;;;1.63;;
80836;SDS011;70251;60.008;30.404;2023-07-30T13:55:55;3.95;;;1.60;;
80836;SDS011;70251;60.008;30.404;2023-07-30T13:58:24;4.15;;;1.63;;
80836;SDS011;70251;60.008;30.404;2023-07-30T14:00:49;4.07;;;1.70;;
80836;SDS011;70251;60.008;30.404;2023-07-30T14:03:19;4.90;;;1.77;;
80836;SDS011;70251;60.008;30.404;2023-07-30T14:05:44;4.13;;;1.70;;
80836;SDS011;70251;60.008;30.404;2023-07-30T14:08:10;5.22;;;1.90;;
80836;SDS011;70251;60.008;30.404;2023-07-30T14:10:36;6.87;;;2.30;;
80836;SDS011;70251;60.008;30.404;2023-07-30T14:13:04;14.00;;;7.63;;
80836;SDS011;70251;60.008;30.404;2023-07-30T14:15:32;6.60;;;3.28;;
80836;SDS011;70251;60.008;30.404;2023-07-30T14:17:58;17.27;;;7.63;;
80836;SDS011;70251;60.008;30.404;2023-07-30T14:20:23;14.80;;;7.50;;
80836;SDS011;70251;60.008;30.404;2023-07-30T14:22:50;12.40;;;6.27;;
80836;SDS011;70251;60.008;30.404;2023-07-30T14:25:17;8.23;;;3.30;;
80836;SDS011;70251;60.008;30.404;2023-07-30T14:27:42;7.17;;;2.57;;
80836;SDS011;70251;60.008;30.404;2023-07-30T14:30:08;5.07;;;2.25;;
80836;SDS011;70251;60.008;30.404;2023-07-30T14:32:34;5.43;;;2.40;;
80836;SDS011;70251;60.008;30.404;2023-07-30T14:34:59;5.47;;;2.15;;
80836;SDS011;70251;60.008;30.404;2023-07-30T14:37:25;9.87;;;4.33;;
80836;SDS011;70251;60.008;30.404;2023-07-30T14:39:50;4.47;;;2.13;;
80836;SDS011;70251;60.008;30.404;2023-07-30T14:42:16;5.07;;;2.08;;
80836;SDS011;70251;60.008;30.404;2023-07-30T14:44:41;5.43;;;2.50;;